Weather at Pieksämäki Airfield

Public forecast

Using degrees Celsius for public forecast. Weather courtesy of forecast.io.

Closest aviation weather report (METAR) to Pieksämäki Airfield

Closest report is Mikkeli Airport, 35.2 nm (65.1 km) S.

2024/07/22 10:20 (retrieved 21 minutes ago)

EFMI 221020Z AUTO 08009KT 040V110 CAVOK 24/10 Q1016

Closest aviation forecast (TAF) to Pieksämäki Airfield

Closest forecast is Jyväskylä Airport, 37.8 nm (70.0 km) WNW.

2024/07/22 09:42 (retrieved 59 minutes ago)

TAF EFJY 220827Z 2209/2309 14005KT CAVOK